Time;durP1;ratioP1;P1;durP2;ratioP2;P2;SDS_P1;SDS_P2;PMS_P1;PMS_P2;Temp;Humidity;BMP_temperature;BMP_pressure;BME280_temperature;BME280_humidity;BME280_pressure;Samples;Min_cycle;Max_cycle;Signal;HPM_P1;HPM_P2
2023/12/21 00:01:59;;;;;;;3.20;1.63;;;;;;;;;;5074459;28;20578;-77
2023/12/21 00:04:25;;;;;;;4.43;1.70;;;;;;;;;;5074540;28;20210;-76
2023/12/21 00:06:51;;;;;;;3.40;1.83;;;;;;;;;;5075691;28;20273;-78
2023/12/21 00:09:18;;;;;;;2.30;1.40;;;;;;;;;;5069713;28;20697;-77
2023/12/21 00:11:45;;;;;;;2.30;1.60;;;;;;;;;;5072793;28;20203;-76
2023/12/21 00:14:11;;;;;;;2.30;1.77;;;;;;;;;;5058601;28;20302;-78
2023/12/21 00:16:37;;;;;;;2.40;1.63;;;;;;;;;;5075226;28;20214;-74
2023/12/21 00:19:03;;;;;;;3.27;1.80;;;;;;;;;;5076917;28;20209;-76
2023/12/21 00:21:29;;;;;;;2.80;1.77;;;;;;;;;;5079257;28;20207;-76
2023/12/21 00:23:55;;;;;;;2.50;1.80;;;;;;;;;;5053650;28;20261;-77
2023/12/21 00:26:21;;;;;;;2.30;1.70;;;;;;;;;;5056042;28;20218;-76
2023/12/21 00:28:47;;;;;;;2.87;1.60;;;;;;;;;;5074401;28;20210;-75
2023/12/21 00:31:13;;;;;;;2.93;1.83;;;;;;;;;;5071250;28;20199;-76
2023/12/21 00:33:39;;;;;;;2.67;1.77;;;;;;;;;;5072840;28;20732;-76
2023/12/21 00:36:05;;;;;;;1.93;1.60;;;;;;;;;;5057952;28;20217;-75
2023/12/21 00:38:31;;;;;;;2.50;1.67;;;;;;;;;;5072419;28;20209;-76
2023/12/21 00:40:59;;;;;;;2.47;1.50;;;;;;;;;;5051362;28;20290;-76
2023/12/21 00:43:25;;;;;;;2.47;1.53;;;;;;;;;;5072406;28;20207;-76
2023/12/21 00:45:51;;;;;;;1.87;1.30;;;;;;;;;;5072895;28;20216;-76
2023/12/21 00:48:17;;;;;;;3.07;1.83;;;;;;;;;;5077240;28;20234;-75
2023/12/21 00:50:43;;;;;;;2.20;1.43;;;;;;;;;;5072260;28;20175;-76
2023/12/21 00:53:09;;;;;;;2.43;1.50;;;;;;;;;;5061070;28;20201;-75
2023/12/21 00:55:35;;;;;;;1.80;1.40;;;;;;;;;;5055156;28;20207;-75
2023/12/21 00:58:01;;;;;;;2.37;1.37;;;;;;;;;;5054208;28;20218;-75
2023/12/21 01:00:27;;;;;;;2.87;1.60;;;;;;;;;;5074846;28;20207;-76
2023/12/21 01:02:54;;;;;;;2.17;1.50;;;;;;;;;;5070766;28;20179;-75
2023/12/21 01:05:20;;;;;;;2.80;1.73;;;;;;;;;;5072567;28;20167;-75
2023/12/21 01:07:46;;;;;;;3.23;1.47;;;;;;;;;;5075237;28;20215;-76
2023/12/21 01:10:12;;;;;;;1.67;1.10;;;;;;;;;;5057819;28;20216;-75
2023/12/21 01:12:38;;;;;;;3.87;1.27;;;;;;;;;;5069828;28;20227;-76
2023/12/21 01:15:04;;;;;;;1.53;1.20;;;;;;;;;;5059147;28;20215;-75
2023/12/21 01:17:30;;;;;;;2.23;1.27;;;;;;;;;;5070477;28;20206;-77
2023/12/21 01:19:56;;;;;;;1.50;1.00;;;;;;;;;;5073873;28;20214;-77
2023/12/21 01:22:23;;;;;;;1.63;1.10;;;;;;;;;;5073059;28;20209;-75
2023/12/21 01:24:49;;;;;;;1.40;1.00;;;;;;;;;;5074853;28;20220;-74
2023/12/21 01:27:15;;;;;;;2.83;0.90;;;;;;;;;;5056552;28;20272;-76
2023/12/21 01:29:41;;;;;;;1.90;1.30;;;;;;;;;;5072058;28;20177;-76
2023/12/21 01:32:07;;;;;;;1.27;0.90;;;;;;;;;;5070912;28;20268;-76
2023/12/21 01:34:33;;;;;;;0.77;0.60;;;;;;;;;;5075325;28;20551;-76
2023/12/21 01:36:59;;;;;;;2.20;1.23;;;;;;;;;;5081140;28;20215;-74
2023/12/21 01:39:25;;;;;;;1.43;1.13;;;;;;;;;;5073391;28;20259;-76
2023/12/21 01:41:51;;;;;;;1.53;1.30;;;;;;;;;;5080203;28;20190;-75
2023/12/21 01:44:17;;;;;;;1.23;1.00;;;;;;;;;;5075269;28;20197;-74
2023/12/21 01:46:44;;;;;;;0.80;0.70;;;;;;;;;;5066539;28;20275;-75
2023/12/21 01:49:10;;;;;;;1.77;0.80;;;;;;;;;;5077371;28;20217;-76
2023/12/21 01:51:37;;;;;;;1.07;0.70;;;;;;;;;;5069548;28;20207;-75
2023/12/21 01:54:03;;;;;;;0.80;0.67;;;;;;;;;;5072018;28;20210;-76
2023/12/21 01:56:32;;;;;;;1.20;0.93;;;;;;;;;;5067264;28;20202;-75
2023/12/21 01:58:58;;;;;;;1.67;1.07;;;;;;;;;;5049499;28;20233;-75
2023/12/21 02:01:24;;;;;;;1.30;0.93;;;;;;;;;;5054347;28;20210;-75
2023/12/21 02:03:50;;;;;;;1.10;0.90;;;;;;;;;;5066862;28;20625;-73
2023/12/21 02:06:16;;;;;;;1.67;1.07;;;;;;;;;;5075794;28;20213;-75
2023/12/21 02:08:42;;;;;;;1.27;0.87;;;;;;;;;;5052475;28;20187;-75
2023/12/21 02:11:08;;;;;;;2.27;0.90;;;;;;;;;;5053194;28;20266;-75
2023/12/21 02:13:35;;;;;;;1.43;0.97;;;;;;;;;;5069344;28;20297;-75
2023/12/21 02:16:05;;;;;;;0.73;0.57;;;;;;;;;;5073925;28;20574;-75
2023/12/21 02:18:31;;;;;;;1.37;1.10;;;;;;;;;;5053913;28;20218;-75
2023/12/21 02:20:58;;;;;;;1.03;0.60;;;;;;;;;;5058466;28;20194;-75
2023/12/21 02:23:26;;;;;;;1.37;0.70;;;;;;;;;;5076204;28;20174;-76
2023/12/21 02:25:52;;;;;;;0.60;0.50;;;;;;;;;;5079827;28;20206;-77
2023/12/21 02:28:18;;;;;;;0.57;0.53;;;;;;;;;;5070151;28;20211;-76
2023/12/21 02:30:47;;;;;;;1.27;0.67;;;;;;;;;;5072089;28;20293;-77
2023/12/21 02:33:13;;;;;;;2.20;0.77;;;;;;;;;;5074827;28;20226;-75
2023/12/21 02:35:39;;;;;;;0.60;0.57;;;;;;;;;;5054389;28;20174;-75
2023/12/21 02:38:05;;;;;;;1.07;0.60;;;;;;;;;;5056778;28;20568;-75
2023/12/21 02:40:31;;;;;;;1.07;0.60;;;;;;;;;;5066158;28;20211;-77
2023/12/21 02:42:57;;;;;;;1.50;0.70;;;;;;;;;;5057368;28;20210;-75
2023/12/21 02:45:23;;;;;;;1.73;0.80;;;;;;;;;;5069668;28;20222;-76
2023/12/21 02:47:49;;;;;;;0.67;0.60;;;;;;;;;;5068364;28;20244;-76
2023/12/21 02:50:15;;;;;;;0.67;0.60;;;;;;;;;;5069632;28;20180;-76
2023/12/21 02:52:41;;;;;;;0.80;0.60;;;;;;;;;;5069035;28;20225;-76
2023/12/21 02:55:07;;;;;;;1.00;0.50;;;;;;;;;;5069244;28;20747;-77
2023/12/21 02:57:33;;;;;;;0.53;0.50;;;;;;;;;;5076688;28;22157;-75
2023/12/21 03:00:00;;;;;;;1.30;0.50;;;;;;;;;;5082080;28;20229;-77
2023/12/21 03:02:26;;;;;;;0.90;0.73;;;;;;;;;;5080717;28;20186;-75
2023/12/21 03:04:52;;;;;;;0.73;0.60;;;;;;;;;;5079214;28;20217;-75
2023/12/21 03:07:18;;;;;;;0.60;0.60;;;;;;;;;;5070803;28;20290;-75
2023/12/21 03:09:44;;;;;;;0.77;0.63;;;;;;;;;;5062263;28;20219;-74
2023/12/21 03:12:10;;;;;;;0.50;0.50;;;;;;;;;;5074333;28;20222;-74
2023/12/21 03:14:36;;;;;;;0.90;0.70;;;;;;;;;;5070434;28;20205;-74
2023/12/21 03:17:02;;;;;;;0.50;0.50;;;;;;;;;;5058086;28;20701;-74
2023/12/21 03:19:28;;;;;;;0.60;0.60;;;;;;;;;;5082930;28;20657;-75
2023/12/21 03:21:54;;;;;;;0.97;0.70;;;;;;;;;;5052748;28;20231;-73
2023/12/21 03:24:20;;;;;;;0.80;0.60;;;;;;;;;;5076823;28;20226;-75
2023/12/21 03:26:46;;;;;;;0.77;0.70;;;;;;;;;;5059345;28;20206;-75
2023/12/21 03:29:12;;;;;;;0.57;0.57;;;;;;;;;;5057590;28;20523;-75
2023/12/21 03:31:38;;;;;;;0.77;0.70;;;;;;;;;;5074363;28;20305;-72
2023/12/21 03:34:04;;;;;;;1.10;0.90;;;;;;;;;;5072770;28;20263;-76
2023/12/21 03:36:31;;;;;;;2.33;0.73;;;;;;;;;;5079455;28;20735;-75
2023/12/21 03:38:59;;;;;;;0.60;0.60;;;;;;;;;;5073023;28;20268;-75
2023/12/21 03:41:25;;;;;;;1.03;0.90;;;;;;;;;;5069371;28;20205;-76
2023/12/21 03:43:51;;;;;;;0.70;0.50;;;;;;;;;;5071564;28;20595;-75
2023/12/21 03:46:17;;;;;;;1.00;0.90;;;;;;;;;;5076112;28;20852;-75
2023/12/21 03:48:43;;;;;;;0.83;0.67;;;;;;;;;;5073707;28;20207;-75
2023/12/21 03:51:09;;;;;;;1.73;0.90;;;;;;;;;;5073526;28;20203;-75
2023/12/21 03:53:35;;;;;;;0.80;0.70;;;;;;;;;;5047506;28;20211;-75
2023/12/21 03:56:01;;;;;;;1.40;0.90;;;;;;;;;;5071796;28;20202;-76
2023/12/21 03:58:27;;;;;;;1.37;1.07;;;;;;;;;;5057656;28;20206;-75
2023/12/21 04:00:53;;;;;;;1.43;1.10;;;;;;;;;;5073294;28;20207;-76
2023/12/21 04:03:20;;;;;;;0.87;0.80;;;;;;;;;;5072191;28;20256;-75
2023/12/21 04:05:46;;;;;;;1.47;1.27;;;;;;;;;;5066935;28;20206;-75
2023/12/21 04:08:12;;;;;;;1.23;1.13;;;;;;;;;;5073422;28;20747;-75
2023/12/21 04:10:38;;;;;;;1.27;0.90;;;;;;;;;;5072424;28;20755;-73
2023/12/21 04:13:04;;;;;;;1.67;1.00;;;;;;;;;;5070649;28;20226;-75
2023/12/21 04:15:30;;;;;;;2.20;1.00;;;;;;;;;;5073505;28;20762;-75
2023/12/21 04:17:56;;;;;;;1.23;1.00;;;;;;;;;;5066523;28;20223;-75
2023/12/21 04:20:22;;;;;;;2.00;1.07;;;;;;;;;;5057770;28;20206;-75
2023/12/21 04:22:48;;;;;;;1.10;1.00;;;;;;;;;;5050814;28;20206;-75
2023/12/21 04:25:14;;;;;;;2.30;0.90;;;;;;;;;;5073668;28;20209;-75
2023/12/21 04:27:40;;;;;;;0.87;0.80;;;;;;;;;;5052164;28;20754;-75
2023/12/21 04:30:06;;;;;;;1.40;1.00;;;;;;;;;;5069746;28;20294;-73
2023/12/21 04:32:32;;;;;;;1.00;0.70;;;;;;;;;;5057882;28;20191;-75
2023/12/21 04:34:58;;;;;;;0.90;0.77;;;;;;;;;;5071230;28;20980;-74
2023/12/21 04:37:24;;;;;;;4.00;1.37;;;;;;;;;;5072195;28;20289;-75
2023/12/21 04:39:50;;;;;;;1.53;0.90;;;;;;;;;;5055591;28;20250;-75
2023/12/21 04:42:16;;;;;;;1.70;1.20;;;;;;;;;;5053561;28;20229;-76
2023/12/21 04:44:42;;;;;;;1.20;0.80;;;;;;;;;;5073467;28;20175;-75
2023/12/21 04:47:10;;;;;;;1.40;1.10;;;;;;;;;;5067149;28;20307;-73
2023/12/21 04:49:36;;;;;;;2.20;1.40;;;;;;;;;;5055254;28;20214;-75
2023/12/21 04:52:03;;;;;;;3.00;1.23;;;;;;;;;;5061130;28;20211;-75
2023/12/21 04:54:30;;;;;;;1.50;1.10;;;;;;;;;;5051583;28;20685;-75
2023/12/21 04:56:56;;;;;;;1.77;1.10;;;;;;;;;;5055546;28;20566;-75
2023/12/21 04:59:22;;;;;;;1.87;1.13;;;;;;;;;;5057531;28;20178;-75
2023/12/21 05:01:52;;;;;;;1.75;1.30;;;;;;;;;;5062422;28;20467;-74
2023/12/21 05:04:18;;;;;;;1.70;1.10;;;;;;;;;;5075832;28;20221;-75
2023/12/21 05:06:44;;;;;;;1.37;1.10;;;;;;;;;;5060364;28;20207;-75
2023/12/21 05:09:10;;;;;;;0.73;0.70;;;;;;;;;;5070174;28;20755;-75
2023/12/21 05:11:36;;;;;;;1.00;0.90;;;;;;;;;;5065271;28;20183;-74
2023/12/21 05:14:02;;;;;;;0.80;0.80;;;;;;;;;;5071094;28;20211;-75
2023/12/21 05:16:28;;;;;;;2.27;0.90;;;;;;;;;;5053381;28;20207;-74
2023/12/21 05:18:54;;;;;;;1.70;1.03;;;;;;;;;;5059641;28;20202;-75
2023/12/21 05:21:20;;;;;;;0.70;0.70;;;;;;;;;;5055131;28;20203;-75
2023/12/21 05:23:46;;;;;;;1.13;0.80;;;;;;;;;;5071710;28;20175;-75
2023/12/21 05:26:13;;;;;;;1.83;1.00;;;;;;;;;;5068283;28;20239;-75
2023/12/21 05:28:39;;;;;;;0.80;0.70;;;;;;;;;;5072091;28;20584;-75
2023/12/21 05:31:09;;;;;;;2.77;1.23;;;;;;;;;;5069325;28;20211;-74
2023/12/21 05:33:35;;;;;;;0.93;0.90;;;;;;;;;;5056362;28;20313;-75
2023/12/21 05:36:02;;;;;;;1.43;0.97;;;;;;;;;;5070718;28;20629;-74
2023/12/21 05:38:28;;;;;;;1.67;0.83;;;;;;;;;;5066430;28;20666;-74
2023/12/21 05:40:54;;;;;;;1.03;0.90;;;;;;;;;;5068246;28;20205;-75
2023/12/21 05:43:21;;;;;;;0.80;0.80;;;;;;;;;;5072258;28;20225;-73
2023/12/21 05:45:47;;;;;;;0.80;0.73;;;;;;;;;;5068589;28;20263;-75
2023/12/21 05:48:13;;;;;;;0.70;0.60;;;;;;;;;;5075746;28;20762;-76
2023/12/21 05:50:39;;;;;;;0.90;0.70;;;;;;;;;;5068521;28;20206;-75
2023/12/21 05:53:06;;;;;;;2.23;0.60;;;;;;;;;;5066351;28;20249;-75
2023/12/21 05:55:33;;;;;;;0.53;0.53;;;;;;;;;;5068870;28;20580;-76
2023/12/21 05:57:59;;;;;;;1.13;0.70;;;;;;;;;;5073835;28;20217;-76
2023/12/21 06:00:26;;;;;;;0.90;0.60;;;;;;;;;;5073883;28;20210;-75
2023/12/21 06:02:52;;;;;;;0.53;0.53;;;;;;;;;;5053101;28;20222;-75
2023/12/21 06:05:18;;;;;;;0.70;0.70;;;;;;;;;;5071383;28;20245;-74
2023/12/21 06:07:43;;;;;;;0.90;0.70;;;;;;;;;;5068279;28;20230;-75
2023/12/21 06:10:10;;;;;;;0.97;0.80;;;;;;;;;;5077765;28;20234;-74
2023/12/21 06:12:36;;;;;;;2.87;0.80;;;;;;;;;;5071504;28;20622;-75
2023/12/21 06:15:04;;;;;;;0.80;0.80;;;;;;;;;;5071825;28;20731;-74
2023/12/21 06:17:30;;;;;;;0.80;0.70;;;;;;;;;;5053779;28;21602;-75
2023/12/21 06:19:56;;;;;;;0.83;0.73;;;;;;;;;;5062850;28;20203;-75
2023/12/21 06:22:22;;;;;;;0.73;0.63;;;;;;;;;;5064379;28;20210;-73
2023/12/21 06:24:49;;;;;;;0.80;0.60;;;;;;;;;;5072869;28;20256;-74
2023/12/21 06:27:17;;;;;;;2.30;0.60;;;;;;;;;;5073280;28;20241;-76
2023/12/21 06:29:43;;;;;;;0.87;0.87;;;;;;;;;;5048292;28;20172;-77
2023/12/21 06:32:09;;;;;;;0.80;0.60;;;;;;;;;;5071058;28;20264;-72
2023/12/21 06:34:35;;;;;;;0.67;0.67;;;;;;;;;;5081415;28;20211;-74
2023/12/21 06:37:03;;;;;;;1.23;0.50;;;;;;;;;;5056749;28;20206;-74
2023/12/21 06:39:31;;;;;;;1.47;0.63;;;;;;;;;;5057612;28;20289;-75
2023/12/21 06:41:57;;;;;;;0.60;0.60;;;;;;;;;;5079563;28;20182;-75
2023/12/21 06:44:23;;;;;;;0.60;0.50;;;;;;;;;;5081753;28;20641;-74
2023/12/21 06:46:50;;;;;;;0.97;0.50;;;;;;;;;;5061579;28;20214;-75
2023/12/21 06:49:16;;;;;;;1.37;0.77;;;;;;;;;;5073313;28;20210;-76
2023/12/21 06:51:44;;;;;;;0.73;0.70;;;;;;;;;;5079972;28;20210;-74
2023/12/21 06:54:10;;;;;;;1.03;0.80;;;;;;;;;;5055674;28;20203;-75
2023/12/21 06:56:37;;;;;;;1.90;0.90;;;;;;;;;;5071946;28;20194;-75
2023/12/21 06:59:04;;;;;;;0.83;0.70;;;;;;;;;;5055192;28;20199;-75
2023/12/21 07:01:30;;;;;;;3.37;0.50;;;;;;;;;;5071736;28;20585;-75
2023/12/21 07:03:57;;;;;;;0.67;0.57;;;;;;;;;;5073761;28;20219;-74
2023/12/21 07:06:25;;;;;;;1.27;0.90;;;;;;;;;;5054670;28;20615;-75
2023/12/21 07:08:51;;;;;;;0.90;0.70;;;;;;;;;;5076593;28;20626;-72
2023/12/21 07:11:17;;;;;;;1.10;0.83;;;;;;;;;;5056404;28;20623;-74
2023/12/21 07:13:43;;;;;;;0.53;0.53;;;;;;;;;;5075345;28;20253;-74
2023/12/21 07:16:09;;;;;;;0.90;0.80;;;;;;;;;;5070606;28;21017;-75
2023/12/21 07:18:35;;;;;;;1.60;0.90;;;;;;;;;;5068928;28;20223;-75
2023/12/21 07:21:02;;;;;;;0.47;0.47;;;;;;;;;;5074853;28;20302;-75
2023/12/21 07:23:28;;;;;;;0.90;0.70;;;;;;;;;;5058967;28;20178;-73
2023/12/21 07:25:54;;;;;;;0.80;0.70;;;;;;;;;;5087748;28;20401;-74
2023/12/21 07:28:20;;;;;;;0.60;0.60;;;;;;;;;;5067892;28;20203;-74
2023/12/21 07:30:46;;;;;;;0.83;0.53;;;;;;;;;;5086232;28;20210;-74
2023/12/21 07:33:12;;;;;;;0.73;0.73;;;;;;;;;;5082177;28;20265;-77
2023/12/21 07:35:38;;;;;;;1.10;0.80;;;;;;;;;;5079464;28;20179;-75
2023/12/21 07:38:05;;;;;;;1.80;0.83;;;;;;;;;;5084800;28;20205;-76
2023/12/21 07:40:31;;;;;;;0.53;0.33;;;;;;;;;;5076358;28;20234;-74
2023/12/21 07:42:57;;;;;;;0.57;0.50;;;;;;;;;;5075080;28;20564;-74
2023/12/21 07:45:23;;;;;;;1.37;0.53;;;;;;;;;;5075993;28;20281;-75
2023/12/21 07:47:49;;;;;;;0.70;0.40;;;;;;;;;;5059515;28;20195;-76
2023/12/21 07:50:15;;;;;;;0.70;0.70;;;;;;;;;;5080729;28;20252;-75
2023/12/21 07:52:41;;;;;;;0.47;0.47;;;;;;;;;;5077885;28;20236;-74
2023/12/21 07:55:07;;;;;;;0.80;0.40;;;;;;;;;;5072616;28;20256;-74
2023/12/21 07:57:33;;;;;;;0.37;0.37;;;;;;;;;;5071850;28;20297;-75
2023/12/21 08:00:00;;;;;;;1.97;0.70;;;;;;;;;;5074043;28;20211;-75
2023/12/21 08:02:26;;;;;;;0.70;0.50;;;;;;;;;;5074601;28;21063;-74
2023/12/21 08:04:52;;;;;;;0.70;0.60;;;;;;;;;;5072050;28;20743;-75
2023/12/21 08:07:18;;;;;;;1.00;0.77;;;;;;;;;;5072958;28;20241;-75
2023/12/21 08:09:45;;;;;;;1.40;0.47;;;;;;;;;;5054461;28;20216;-74
2023/12/21 08:12:13;;;;;;;1.53;1.03;;;;;;;;;;5055142;28;20599;-75
2023/12/21 08:14:39;;;;;;;2.07;0.70;;;;;;;;;;5049041;28;20211;-75
2023/12/21 08:17:09;;;;;;;0.80;0.80;;;;;;;;;;5067965;28;20259;-75
2023/12/21 08:19:36;;;;;;;0.80;0.63;;;;;;;;;;5058077;28;20204;-74
2023/12/21 08:22:02;;;;;;;0.60;0.50;;;;;;;;;;5071910;28;20217;-75
2023/12/21 08:24:28;;;;;;;0.70;0.60;;;;;;;;;;5066267;28;20215;-74
2023/12/21 08:26:54;;;;;;;1.03;0.60;;;;;;;;;;5058395;28;20622;-75
2023/12/21 08:29:20;;;;;;;1.57;0.93;;;;;;;;;;5056182;28;20191;-75
2023/12/21 08:31:46;;;;;;;0.80;0.60;;;;;;;;;;5071552;28;20223;-75
2023/12/21 08:34:12;;;;;;;0.40;0.40;;;;;;;;;;5075540;28;20578;-75
2023/12/21 08:36:38;;;;;;;0.60;0.60;;;;;;;;;;5055708;28;20226;-74
2023/12/21 08:39:04;;;;;;;2.10;0.40;;;;;;;;;;5075223;28;20237;-75
2023/12/21 08:41:30;;;;;;;0.63;0.40;;;;;;;;;;5067642;28;20252;-76
2023/12/21 08:43:57;;;;;;;0.60;0.50;;;;;;;;;;5072815;28;20223;-76
2023/12/21 08:46:23;;;;;;;0.40;0.40;;;;;;;;;;5074412;28;20214;-74
2023/12/21 08:48:49;;;;;;;0.30;0.30;;;;;;;;;;5067015;28;20220;-73
2023/12/21 08:51:16;;;;;;;0.53;0.40;;;;;;;;;;5071369;28;20202;-73
2023/12/21 08:53:42;;;;;;;0.40;0.40;;;;;;;;;;5070630;28;20202;-75
2023/12/21 08:56:09;;;;;;;0.40;0.40;;;;;;;;;;5072637;28;20190;-74
2023/12/21 08:58:36;;;;;;;0.40;0.20;;;;;;;;;;5069234;28;20591;-74
2023/12/21 09:01:02;;;;;;;1.20;0.33;;;;;;;;;;5053411;28;20230;-75
2023/12/21 09:03:28;;;;;;;1.07;0.40;;;;;;;;;;5071679;28;20260;-73
2023/12/21 09:05:54;;;;;;;0.33;0.30;;;;;;;;;;5070626;28;20190;-75
2023/12/21 09:08:20;;;;;;;0.50;0.20;;;;;;;;;;5072911;28;20191;-75
2023/12/21 09:10:46;;;;;;;0.53;0.30;;;;;;;;;;5077792;28;20262;-75
2023/12/21 09:13:12;;;;;;;0.20;0.20;;;;;;;;;;5058725;28;20301;-76
2023/12/21 09:15:38;;;;;;;0.63;0.30;;;;;;;;;;5073735;28;20230;-74
2023/12/21 09:18:06;;;;;;;0.47;0.30;;;;;;;;;;5052223;28;20243;-76
2023/12/21 09:20:32;;;;;;;0.67;0.30;;;;;;;;;;5072715;28;20186;-76
2023/12/21 09:22:58;;;;;;;0.30;0.20;;;;;;;;;;5071293;28;20733;-75
2023/12/21 09:25:24;;;;;;;0.67;0.40;;;;;;;;;;5074968;28;20301;-76
2023/12/21 09:27:52;;;;;;;0.50;0.30;;;;;;;;;;5075077;28;20290;-76
2023/12/21 09:30:19;;;;;;;0.67;0.40;;;;;;;;;;5071925;28;20210;-75
2023/12/21 09:32:45;;;;;;;0.77;0.40;;;;;;;;;;5069469;28;20203;-76
2023/12/21 09:35:11;;;;;;;0.60;0.40;;;;;;;;;;5075123;28;20183;-76
2023/12/21 09:37:37;;;;;;;0.20;0.20;;;;;;;;;;5080809;28;20210;-74
2023/12/21 09:40:03;;;;;;;0.83;0.30;;;;;;;;;;5047830;28;20202;-76
2023/12/21 09:42:30;;;;;;;0.20;0.20;;;;;;;;;;5066952;28;20233;-76
2023/12/21 09:44:56;;;;;;;0.43;0.20;;;;;;;;;;5070128;28;20203;-76
2023/12/21 09:47:29;;;;;;;0.90;0.47;;;;;;;;;;5050211;28;20266;-76
2023/12/21 09:49:56;;;;;;;0.50;0.50;;;;;;;;;;5070087;28;20798;-76
2023/12/21 09:52:23;;;;;;;0.20;0.20;;;;;;;;;;5070906;28;20577;-76
2023/12/21 09:54:50;;;;;;;0.53;0.20;;;;;;;;;;5072375;28;20210;-76
2023/12/21 09:57:16;;;;;;;1.80;0.33;;;;;;;;;;5069484;28;20214;-76
2023/12/21 09:59:42;;;;;;;0.50;0.30;;;;;;;;;;5070268;28;20182;-74
2023/12/21 10:02:12;;;;;;;0.30;0.20;;;;;;;;;;5057640;28;20183;-74
2023/12/21 10:04:41;;;;;;;0.40;0.27;;;;;;;;;;5059628;28;20599;-75
2023/12/21 10:07:09;;;;;;;0.57;0.27;;;;;;;;;;5075673;28;20239;-73
2023/12/21 10:09:36;;;;;;;0.20;0.20;;;;;;;;;;5060071;28;20584;-76
2023/12/21 10:12:02;;;;;;;1.27;0.50;;;;;;;;;;5065961;28;20222;-75
2023/12/21 10:14:29;;;;;;;1.27;0.67;;;;;;;;;;5078352;28;20212;-76
2023/12/21 10:16:55;;;;;;;1.00;0.50;;;;;;;;;;5064444;28;20234;-75
2023/12/21 10:19:21;;;;;;;0.37;0.27;;;;;;;;;;5058628;28;20259;-75
2023/12/21 10:21:47;;;;;;;1.17;0.37;;;;;;;;;;5059894;28;20202;-74
2023/12/21 10:24:13;;;;;;;0.70;0.40;;;;;;;;;;5076818;28;20219;-75
2023/12/21 10:26:46;;;;;;;0.83;0.30;;;;;;;;;;5056635;28;20304;-75
2023/12/21 10:29:16;;;;;;;3.13;0.60;;;;;;;;;;5063382;28;20256;-75
2023/12/21 10:31:44;;;;;;;0.60;0.20;;;;;;;;;;5060901;28;20214;-74
2023/12/21 10:34:10;;;;;;;1.80;0.43;;;;;;;;;;5073764;28;20203;-76
2023/12/21 10:36:44;;;;;;;0.53;0.30;;;;;;;;;;5077724;28;20238;-75
2023/12/21 10:39:11;;;;;;;1.47;0.50;;;;;;;;;;5073451;28;20203;-76
2023/12/21 10:41:40;;;;;;;0.57;0.10;;;;;;;;;;5070706;28;20175;-79
2023/12/21 10:44:06;;;;;;;0.30;0.20;;;;;;;;;;5072081;28;20186;-74
2023/12/21 10:46:32;;;;;;;0.10;0.10;;;;;;;;;;5074346;28;20203;-75
2023/12/21 10:48:59;;;;;;;0.20;0.10;;;;;;;;;;5058386;28;20637;-73
2023/12/21 10:51:27;;;;;;;0.20;0.20;;;;;;;;;;5057282;28;20226;-77
2023/12/21 10:53:53;;;;;;;0.37;0.20;;;;;;;;;;5068523;28;20289;-75
2023/12/21 10:56:21;;;;;;;0.33;0.10;;;;;;;;;;5065953;28;20175;-74
2023/12/21 10:58:48;;;;;;;0.40;0.30;;;;;;;;;;5073367;28;20213;-73
2023/12/21 11:01:14;;;;;;;0.40;0.20;;;;;;;;;;5078884;28;20210;-75
2023/12/21 11:03:42;;;;;;;0.20;0.20;;;;;;;;;;5069739;28;20620;-75
2023/12/21 11:06:09;;;;;;;0.20;0.20;;;;;;;;;;5054048;28;20223;-74
2023/12/21 11:08:38;;;;;;;0.40;0.20;;;;;;;;;;5071217;28;20203;-75
2023/12/21 11:11:04;;;;;;;0.40;0.30;;;;;;;;;;5065569;28;20206;-75
2023/12/21 11:13:30;;;;;;;0.60;0.30;;;;;;;;;;5073218;28;20309;-74
2023/12/21 11:15:57;;;;;;;0.20;0.20;;;;;;;;;;5062354;28;20222;-75
2023/12/21 11:18:23;;;;;;;0.50;0.30;;;;;;;;;;5067572;28;20211;-75
2023/12/21 11:20:51;;;;;;;0.80;0.50;;;;;;;;;;5069277;28;20171;-75
2023/12/21 11:23:17;;;;;;;0.80;0.40;;;;;;;;;;5076086;28;20266;-74
2023/12/21 11:25:44;;;;;;;0.63;0.30;;;;;;;;;;5069604;28;20211;-76
2023/12/21 11:28:10;;;;;;;1.27;0.30;;;;;;;;;;5071613;28;20783;-75
2023/12/21 11:30:36;;;;;;;0.30;0.20;;;;;;;;;;5073977;28;20269;-75
2023/12/21 11:33:09;;;;;;;0.40;0.20;;;;;;;;;;5071882;28;20223;-74
2023/12/21 11:35:35;;;;;;;0.60;0.20;;;;;;;;;;5071880;28;20524;-75
2023/12/21 11:38:05;;;;;;;0.10;0.10;;;;;;;;;;5072012;28;20215;-75
2023/12/21 11:40:32;;;;;;;1.80;0.30;;;;;;;;;;5056862;28;20345;-79
2023/12/21 11:42:59;;;;;;;1.33;0.40;;;;;;;;;;5078479;28;20202;-76
2023/12/21 11:45:29;;;;;;;0.20;0.20;;;;;;;;;;5052905;28;20561;-74
2023/12/21 11:47:55;;;;;;;0.53;0.30;;;;;;;;;;5077959;28;20278;-77
2023/12/21 11:50:23;;;;;;;0.20;0.20;;;;;;;;;;5075031;28;20190;-77
2023/12/21 11:52:49;;;;;;;1.10;0.30;;;;;;;;;;5077623;28;20294;-76
2023/12/21 11:55:27;;;;;;;0.47;0.30;;;;;;;;;;5082816;28;20268;-77
2023/12/21 11:58:23;;;;;;;2.07;0.30;;;;;;;;;;5080321;28;20210;-76
2023/12/21 12:00:51;;;;;;;0.40;0.40;;;;;;;;;;5055385;28;20234;-76
2023/12/21 12:03:17;;;;;;;1.23;0.40;;;;;;;;;;5077853;28;20980;-76
2023/12/21 12:05:44;;;;;;;0.30;0.20;;;;;;;;;;5079807;28;20218;-76
2023/12/21 12:08:10;;;;;;;1.43;0.60;;;;;;;;;;5074954;28;20192;-76
2023/12/21 12:10:37;;;;;;;0.30;0.23;;;;;;;;;;5081939;28;20269;-76
2023/12/21 12:13:03;;;;;;;1.77;0.83;;;;;;;;;;5079821;28;20226;-76
2023/12/21 12:15:29;;;;;;;0.30;0.20;;;;;;;;;;5082323;28;20230;-77
2023/12/21 12:17:55;;;;;;;0.30;0.30;;;;;;;;;;5078140;28;20199;-76
2023/12/21 12:20:22;;;;;;;0.50;0.20;;;;;;;;;;5076966;28;20179;-76
2023/12/21 12:22:51;;;;;;;0.40;0.40;;;;;;;;;;5078705;28;20202;-76
2023/12/21 12:25:17;;;;;;;0.50;0.40;;;;;;;;;;5080711;28;20254;-76
2023/12/21 12:27:43;;;;;;;0.50;0.37;;;;;;;;;;5075626;28;20210;-76
2023/12/21 12:30:11;;;;;;;2.87;0.73;;;;;;;;;;5076242;28;20210;-76
2023/12/21 12:32:37;;;;;;;1.13;0.80;;;;;;;;;;5074336;28;20199;-76
2023/12/21 12:35:03;;;;;;;1.17;0.20;;;;;;;;;;5080346;28;20206;-77
2023/12/21 12:37:31;;;;;;;0.20;0.20;;;;;;;;;;5071292;28;20222;-75
2023/12/21 12:39:57;;;;;;;1.43;0.40;;;;;;;;;;5079466;28;20276;-75
2023/12/21 12:42:23;;;;;;;0.57;0.50;;;;;;;;;;5082093;28;20206;-76
2023/12/21 12:44:53;;;;;;;0.97;0.50;;;;;;;;;;5071616;28;20182;-76
2023/12/21 12:47:22;;;;;;;0.27;0.20;;;;;;;;;;5074669;28;20260;-75
2023/12/21 12:49:48;;;;;;;1.90;0.40;;;;;;;;;;5083063;28;20210;-75
2023/12/21 12:52:17;;;;;;;1.27;0.63;;;;;;;;;;5073417;28;20268;-76
2023/12/21 12:54:46;;;;;;;0.93;0.23;;;;;;;;;;5074665;28;20213;-77
2023/12/21 12:57:12;;;;;;;1.03;0.87;;;;;;;;;;5075674;28;20218;-76
2023/12/21 12:59:38;;;;;;;0.23;0.20;;;;;;;;;;5076901;28;20178;-74
2023/12/21 13:02:04;;;;;;;1.47;0.80;;;;;;;;;;5081413;28;20210;-76
2023/12/21 13:04:31;;;;;;;0.40;0.30;;;;;;;;;;5076963;28;20226;-76
2023/12/21 13:06:57;;;;;;;0.70;0.30;;;;;;;;;;5076926;28;20593;-76
2023/12/21 13:09:23;;;;;;;0.20;0.20;;;;;;;;;;5057711;28;20213;-76
2023/12/21 13:11:49;;;;;;;1.90;0.50;;;;;;;;;;5075120;28;20190;-76
2023/12/21 13:14:15;;;;;;;1.53;0.70;;;;;;;;;;5076734;28;20610;-76
2023/12/21 13:16:47;;;;;;;0.30;0.27;;;;;;;;;;5072715;28;20207;-78
2023/12/21 13:19:13;;;;;;;0.97;0.80;;;;;;;;;;5068475;28;20207;-75
2023/12/21 13:21:39;;;;;;;0.93;0.40;;;;;;;;;;5080542;28;20214;-77
2023/12/21 13:24:06;;;;;;;1.50;0.50;;;;;;;;;;5074112;28;20211;-76
2023/12/21 13:26:32;;;;;;;1.23;0.20;;;;;;;;;;5075018;28;20261;-77
2023/12/21 13:28:58;;;;;;;0.40;0.40;;;;;;;;;;5073085;28;20714;-75
2023/12/21 13:31:24;;;;;;;0.93;0.30;;;;;;;;;;5071923;28;20210;-75
2023/12/21 13:33:51;;;;;;;0.20;0.10;;;;;;;;;;5073624;28;20259;-75
2023/12/21 13:36:17;;;;;;;0.40;0.30;;;;;;;;;;5077382;28;20214;-73
2023/12/21 13:38:43;;;;;;;1.70;0.33;;;;;;;;;;5055008;28;20182;-75
2023/12/21 13:41:09;;;;;;;0.87;0.43;;;;;;;;;;5072829;28;20174;-74
2023/12/21 13:43:35;;;;;;;0.20;0.20;;;;;;;;;;5071946;28;20249;-76
2023/12/21 13:46:01;;;;;;;2.00;0.30;;;;;;;;;;5071739;28;20220;-75
2023/12/21 13:48:27;;;;;;;0.17;0.17;;;;;;;;;;5075359;28;20211;-77
2023/12/21 13:50:53;;;;;;;0.40;0.40;;;;;;;;;;5067588;28;20189;-78
2023/12/21 13:53:19;;;;;;;1.23;0.20;;;;;;;;;;5073788;28;20591;-79
2023/12/21 13:55:46;;;;;;;0.50;0.40;;;;;;;;;;5070697;28;20203;-80
2023/12/21 13:58:13;;;;;;;1.87;0.40;;;;;;;;;;5069551;28;20382;-79
2023/12/21 14:00:40;;;;;;;1.27;0.57;;;;;;;;;;5066911;28;20215;-76
2023/12/21 14:03:06;;;;;;;0.20;0.20;;;;;;;;;;5071000;28;20207;-75
2023/12/21 14:05:32;;;;;;;0.67;0.50;;;;;;;;;;5048371;28;20747;-75
2023/12/21 14:07:58;;;;;;;0.50;0.50;;;;;;;;;;5066615;28;20233;-75
2023/12/21 14:10:24;;;;;;;0.93;0.37;;;;;;;;;;5067549;28;20211;-76
2023/12/21 14:12:50;;;;;;;2.47;0.30;;;;;;;;;;5070441;28;20300;-75
2023/12/21 14:15:16;;;;;;;0.30;0.30;;;;;;;;;;5069565;28;20293;-80
2023/12/21 14:17:42;;;;;;;0.23;0.23;;;;;;;;;;5077901;28;20202;-76
2023/12/21 14:20:10;;;;;;;0.50;0.40;;;;;;;;;;5070162;28;20189;-76
2023/12/21 14:22:36;;;;;;;0.70;0.37;;;;;;;;;;5070502;28;20217;-77
2023/12/21 14:25:02;;;;;;;0.20;0.20;;;;;;;;;;5074140;28;20203;-79
2023/12/21 14:27:28;;;;;;;0.60;0.50;;;;;;;;;;5077416;28;20587;-78
2023/12/21 14:29:54;;;;;;;0.83;0.50;;;;;;;;;;5069876;28;20180;-79
2023/12/21 14:32:20;;;;;;;0.77;0.23;;;;;;;;;;5064593;28;20203;-77
2023/12/21 14:34:46;;;;;;;0.47;0.23;;;;;;;;;;5072395;28;20202;-76
2023/12/21 14:37:14;;;;;;;1.67;0.40;;;;;;;;;;5069665;28;20314;-74
2023/12/21 14:39:40;;;;;;;0.87;0.40;;;;;;;;;;5052389;28;20203;-75